sensor_id;sensor_type;location;lat;lon;timestamp;pressure;altitude;pressure_sealevel;temperature;humidity
40708;BME280;26392;42.696;23.350;2023-02-20T00:00:59;95586.47;;;10.87;70.06
40708;BME280;26392;42.696;23.350;2023-02-20T00:03:24;95591.34;;;10.85;70.40
40708;BME280;26392;42.696;23.350;2023-02-20T00:05:50;95606.47;;;10.76;71.71
40708;BME280;26392;42.696;23.350;2023-02-20T00:08:15;95596.91;;;10.73;72.35
40708;BME280;26392;42.696;23.350;2023-02-20T00:10:41;95590.53;;;10.68;73.13
40708;BME280;26392;42.696;23.350;2023-02-20T00:13:06;95601.69;;;10.66;73.65
40708;BME280;26392;42.696;23.350;2023-02-20T00:15:32;95593.41;;;10.61;74.46
40708;BME280;26392;42.696;23.350;2023-02-20T00:17:57;95590.38;;;10.58;75.03
40708;BME280;26392;42.696;23.350;2023-02-20T00:20:24;95590.38;;;10.58;75.43
40708;BME280;26392;42.696;23.350;2023-02-20T00:22:51;95595.75;;;10.52;76.12
40708;BME280;26392;42.696;23.350;2023-02-20T00:25:18;95594.91;;;10.52;76.31
40708;BME280;26392;42.696;23.350;2023-02-20T00:27:44;95603.59;;;10.49;76.59
40708;BME280;26392;42.696;23.350;2023-02-20T00:30:20;95598.06;;;10.44;77.45
40708;BME280;26392;42.696;23.350;2023-02-20T00:32:47;95585.25;;;10.44;77.23
40708;BME280;26392;42.696;23.350;2023-02-20T00:35:13;95601.03;;;10.42;78.01
40708;BME280;26392;42.696;23.350;2023-02-20T00:37:39;95596.81;;;10.35;78.72
40708;BME280;26392;42.696;23.350;2023-02-20T00:40:05;95587.25;;;10.32;79.87
40708;BME280;26392;42.696;23.350;2023-02-20T00:42:31;95578.97;;;10.27;80.56
40708;BME280;26392;42.696;23.350;2023-02-20T00:44:56;95575.09;;;10.23;81.33
40708;BME280;26392;42.696;23.350;2023-02-20T00:47:22;95584.56;;;10.20;81.80
40708;BME280;26392;42.696;23.350;2023-02-20T00:49:47;95586.38;;;10.15;82.61
40708;BME280;26392;42.696;23.350;2023-02-20T00:52:12;95601.31;;;10.12;83.27
40708;BME280;26392;42.696;23.350;2023-02-20T00:54:38;95591.13;;;10.07;83.78
40708;BME280;26392;42.696;23.350;2023-02-20T00:57:03;95598.38;;;10.02;84.71
40708;BME280;26392;42.696;23.350;2023-02-20T00:59:29;95598.06;;;9.98;85.65
40708;BME280;26392;42.696;23.350;2023-02-20T01:01:54;95608.84;;;9.93;86.43
40708;BME280;26392;42.696;23.350;2023-02-20T01:04:19;95620.00;;;9.92;86.70
40708;BME280;26392;42.696;23.350;2023-02-20T01:06:45;95618.91;;;9.93;86.97
40708;BME280;26392;42.696;23.350;2023-02-20T01:09:11;95626.47;;;9.91;87.38
40708;BME280;26392;42.696;23.350;2023-02-20T01:11:36;95628.16;;;9.92;87.39
40708;BME280;26392;42.696;23.350;2023-02-20T01:14:02;95624.16;;;9.82;88.60
40708;BME280;26392;42.696;23.350;2023-02-20T01:16:28;95637.75;;;9.82;88.70
40708;BME280;26392;42.696;23.350;2023-02-20T01:18:53;95632.69;;;9.86;88.71
40708;BME280;26392;42.696;23.350;2023-02-20T01:21:19;95638.56;;;9.83;89.62
40708;BME280;26392;42.696;23.350;2023-02-20T01:23:44;95644.03;;;9.83;89.88
40708;BME280;26392;42.696;23.350;2023-02-20T01:26:10;95643.84;;;9.73;90.12
40708;BME280;26392;42.696;23.350;2023-02-20T01:28:35;95662.63;;;9.86;89.80
40708;BME280;26392;42.696;23.350;2023-02-20T01:31:00;95669.81;;;9.92;89.60
40708;BME280;26392;42.696;23.350;2023-02-20T01:33:26;95654.63;;;9.96;89.51
40708;BME280;26392;42.696;23.350;2023-02-20T01:35:52;95659.47;;;10.06;88.60
40708;BME280;26392;42.696;23.350;2023-02-20T01:38:17;95654.94;;;10.12;88.03
40708;BME280;26392;42.696;23.350;2023-02-20T01:40:47;95649.59;;;10.17;87.48
40708;BME280;26392;42.696;23.350;2023-02-20T01:43:13;95656.34;;;10.14;88.11
40708;BME280;26392;42.696;23.350;2023-02-20T01:45:40;95659.06;;;10.14;89.01
40708;BME280;26392;42.696;23.350;2023-02-20T01:48:06;95651.94;;;10.13;89.01
40708;BME280;26392;42.696;23.350;2023-02-20T01:50:36;95662.34;;;10.16;89.28
40708;BME280;26392;42.696;23.350;2023-02-20T01:53:07;95652.38;;;10.22;89.25
40708;BME280;26392;42.696;23.350;2023-02-20T01:55:37;95651.47;;;10.16;90.12
40708;BME280;26392;42.696;23.350;2023-02-20T01:58:20;95658.81;;;10.16;90.52
40708;BME280;26392;42.696;23.350;2023-02-20T02:00:46;95667.72;;;10.11;90.76
40708;BME280;26392;42.696;23.350;2023-02-20T02:03:14;95667.47;;;10.13;90.86
40708;BME280;26392;42.696;23.350;2023-02-20T02:05:46;95667.72;;;10.11;91.23
40708;BME280;26392;42.696;23.350;2023-02-20T02:08:13;95656.47;;;10.07;92.31
40708;BME280;26392;42.696;23.350;2023-02-20T02:11:00;95647.66;;;9.89;94.71
40708;BME280;26392;42.696;23.350;2023-02-20T02:13:30;95643.78;;;9.84;95.20
40708;BME280;26392;42.696;23.350;2023-02-20T02:24:42;95662.56;;;9.57;94.13
40708;BME280;26392;42.696;23.350;2023-02-20T02:38:08;95680.13;;;9.03;96.13
40708;BME280;26392;42.696;23.350;2023-02-20T02:40:41;95665.69;;;8.90;97.34
40708;BME280;26392;42.696;23.350;2023-02-20T02:43:17;95679.75;;;8.87;97.92
40708;BME280;26392;42.696;23.350;2023-02-20T02:45:53;95686.97;;;8.82;99.28
40708;BME280;26392;42.696;23.350;2023-02-20T02:48:27;95682.81;;;8.79;99.86
40708;BME280;26392;42.696;23.350;2023-02-20T02:50:57;95685.88;;;8.71;100.00
40708;BME280;26392;42.696;23.350;2023-02-20T02:53:24;95690.28;;;8.72;100.00
40708;BME280;26392;42.696;23.350;2023-02-20T02:55:50;95689.91;;;8.68;100.00
40708;BME280;26392;42.696;23.350;2023-02-20T02:58:15;95707.19;;;8.74;100.00
40708;BME280;26392;42.696;23.350;2023-02-20T03:00:45;95709.41;;;8.77;100.00
40708;BME280;26392;42.696;23.350;2023-02-20T03:03:19;95718.13;;;8.67;100.00
40708;BME280;26392;42.696;23.350;2023-02-20T03:05:54;95725.19;;;8.57;100.00
40708;BME280;26392;42.696;23.350;2023-02-20T03:08:29;95718.00;;;8.62;100.00
40708;BME280;26392;42.696;23.350;2023-02-20T03:11:12;95719.41;;;8.65;100.00
40708;BME280;26392;42.696;23.350;2023-02-20T03:13:42;95714.44;;;8.62;100.00
40708;BME280;26392;42.696;23.350;2023-02-20T03:16:41;95718.94;;;8.56;100.00
40708;BME280;26392;42.696;23.350;2023-02-20T03:19:11;95714.06;;;8.46;100.00
40708;BME280;26392;42.696;23.350;2023-02-20T03:21:40;95723.25;;;8.45;100.00
40708;BME280;26392;42.696;23.350;2023-02-20T03:24:08;95716.25;;;8.38;100.00
40708;BME280;26392;42.696;23.350;2023-02-20T03:26:37;95720.03;;;8.37;100.00
40708;BME280;26392;42.696;23.350;2023-02-20T03:29:16;95729.16;;;8.42;100.00
40708;BME280;26392;42.696;23.350;2023-02-20T03:31:55;95736.09;;;8.38;100.00
40708;BME280;26392;42.696;23.350;2023-02-20T03:34:41;95758.50;;;8.34;100.00
40708;BME280;26392;42.696;23.350;2023-02-20T03:37:27;95762.00;;;8.41;100.00
40708;BME280;26392;42.696;23.350;2023-02-20T03:40:15;95754.50;;;8.36;100.00
40708;BME280;26392;42.696;23.350;2023-02-20T03:43:04;95751.94;;;8.41;100.00
40708;BME280;26392;42.696;23.350;2023-02-20T03:45:58;95748.63;;;8.39;100.00
40708;BME280;26392;42.696;23.350;2023-02-20T03:48:35;95751.13;;;8.41;100.00
40708;BME280;26392;42.696;23.350;2023-02-20T03:51:04;95752.78;;;8.42;100.00
40708;BME280;26392;42.696;23.350;2023-02-20T03:53:29;95746.94;;;8.38;100.00
40708;BME280;26392;42.696;23.350;2023-02-20T03:55:57;95745.53;;;8.36;100.00
40708;BME280;26392;42.696;23.350;2023-02-20T03:58:26;95747.16;;;8.37;100.00
40708;BME280;26392;42.696;23.350;2023-02-20T04:00:57;95746.22;;;8.31;100.00
40708;BME280;26392;42.696;23.350;2023-02-20T04:03:27;95746.66;;;8.28;100.00
40708;BME280;26392;42.696;23.350;2023-02-20T04:05:56;95750.66;;;8.25;100.00
40708;BME280;26392;42.696;23.350;2023-02-20T04:08:28;95750.09;;;8.23;100.00
40708;BME280;26392;42.696;23.350;2023-02-20T04:11:03;95761.38;;;8.20;100.00
40708;BME280;26392;42.696;23.350;2023-02-20T04:13:31;95751.13;;;8.22;100.00
40708;BME280;26392;42.696;23.350;2023-02-20T04:15:59;95762.00;;;8.22;100.00
40708;BME280;26392;42.696;23.350;2023-02-20T04:18:26;95756.56;;;8.22;100.00
40708;BME280;26392;42.696;23.350;2023-02-20T04:20:54;95762.81;;;8.23;100.00
40708;BME280;26392;42.696;23.350;2023-02-20T04:23:22;95758.25;;;8.23;100.00
40708;BME280;26392;42.696;23.350;2023-02-20T04:25:50;95767.19;;;8.24;100.00
40708;BME280;26392;42.696;23.350;2023-02-20T04:28:17;95782.53;;;8.18;100.00
40708;BME280;26392;42.696;23.350;2023-02-20T04:30:43;95763.97;;;8.15;100.00
40708;BME280;26392;42.696;23.350;2023-02-20T04:33:10;95761.25;;;8.15;100.00
40708;BME280;26392;42.696;23.350;2023-02-20T04:35:36;95764.81;;;8.16;100.00
40708;BME280;26392;42.696;23.350;2023-02-20T04:38:02;95769.41;;;8.15;100.00
40708;BME280;26392;42.696;23.350;2023-02-20T04:40:27;95763.59;;;8.12;100.00
40708;BME280;26392;42.696;23.350;2023-02-20T04:42:52;95764.97;;;8.02;100.00
40708;BME280;26392;42.696;23.350;2023-02-20T04:45:18;95770.19;;;8.04;100.00
40708;BME280;26392;42.696;23.350;2023-02-20T04:47:44;95779.97;;;8.05;100.00
40708;BME280;26392;42.696;23.350;2023-02-20T04:50:19;95772.03;;;8.03;100.00
40708;BME280;26392;42.696;23.350;2023-02-20T04:52:45;95785.03;;;8.01;100.00
40708;BME280;26392;42.696;23.350;2023-02-20T04:55:10;95783.19;;;7.95;100.00
40708;BME280;26392;42.696;23.350;2023-02-20T04:57:35;95792.66;;;7.93;100.00
40708;BME280;26392;42.696;23.350;2023-02-20T05:00:01;95793.69;;;7.92;100.00
40708;BME280;26392;42.696;23.350;2023-02-20T05:02:26;95795.94;;;7.95;100.00
40708;BME280;26392;42.696;23.350;2023-02-20T05:04:52;95789.31;;;7.91;97.92
40708;BME280;26392;42.696;23.350;2023-02-20T05:07:17;95801.38;;;7.95;95.35
40708;BME280;26392;42.696;23.350;2023-02-20T05:09:43;95804.69;;;7.97;93.89
40708;BME280;26392;42.696;23.350;2023-02-20T05:12:08;95814.41;;;7.86;93.31
40708;BME280;26392;42.696;23.350;2023-02-20T05:14:34;95811.50;;;7.88;90.42
40708;BME280;26392;42.696;23.350;2023-02-20T05:17:00;95803.34;;;7.88;88.94
40708;BME280;26392;42.696;23.350;2023-02-20T05:19:25;95793.41;;;7.81;87.71
40708;BME280;26392;42.696;23.350;2023-02-20T05:21:51;95806.06;;;7.88;86.34
40708;BME280;26392;42.696;23.350;2023-02-20T05:24:35;95810.50;;;7.82;84.89
40708;BME280;26392;42.696;23.350;2023-02-20T05:27:00;95795.25;;;7.81;84.04
40708;BME280;26392;42.696;23.350;2023-02-20T05:29:26;95818.19;;;7.85;83.56
40708;BME280;26392;42.696;23.350;2023-02-20T05:31:51;95824.06;;;7.82;83.64
40708;BME280;26392;42.696;23.350;2023-02-20T05:34:17;95828.81;;;7.87;83.64
40708;BME280;26392;42.696;23.350;2023-02-20T05:36:45;95858.06;;;7.84;84.01
40708;BME280;26392;42.696;23.350;2023-02-20T05:39:10;95851.94;;;7.89;84.77
40708;BME280;26392;42.696;23.350;2023-02-20T05:41:36;95854.66;;;7.89;85.28
40708;BME280;26392;42.696;23.350;2023-02-20T05:44:02;95852.38;;;7.86;84.93
40708;BME280;26392;42.696;23.350;2023-02-20T05:46:28;95860.25;;;7.94;85.56
40708;BME280;26392;42.696;23.350;2023-02-20T05:48:54;95852.94;;;7.95;87.35
40708;BME280;26392;42.696;23.350;2023-02-20T05:51:24;95855.47;;;7.90;88.89
40708;BME280;26392;42.696;23.350;2023-02-20T05:53:50;95859.16;;;7.95;89.55
40708;BME280;26392;42.696;23.350;2023-02-20T05:56:16;95856.34;;;7.90;89.65
40708;BME280;26392;42.696;23.350;2023-02-20T05:58:42;95847.66;;;8.00;89.36
40708;BME280;26392;42.696;23.350;2023-02-20T06:01:14;95848.72;;;7.99;90.01
40708;BME280;26392;42.696;23.350;2023-02-20T06:03:40;95857.91;;;7.98;90.07
40708;BME280;26392;42.696;23.350;2023-02-20T06:06:05;95849.31;;;8.01;89.77
40708;BME280;26392;42.696;23.350;2023-02-20T06:08:30;95863.63;;;8.08;88.94
40708;BME280;26392;42.696;23.350;2023-02-20T06:10:56;95862.56;;;8.09;87.94
40708;BME280;26392;42.696;23.350;2023-02-20T06:13:21;95866.66;;;8.18;86.28
40708;BME280;26392;42.696;23.350;2023-02-20T06:15:47;95866.38;;;8.26;83.53
40708;BME280;26392;42.696;23.350;2023-02-20T06:18:12;95864.75;;;8.37;82.27
40708;BME280;26392;42.696;23.350;2023-02-20T06:20:37;95865.75;;;8.43;79.12
40708;BME280;26392;42.696;23.350;2023-02-20T06:23:03;95879.25;;;8.49;75.86
40708;BME280;26392;42.696;23.350;2023-02-20T06:25:29;95878.25;;;8.62;75.14
40708;BME280;26392;42.696;23.350;2023-02-20T06:27:54;95873.88;;;8.61;73.03
40708;BME280;26392;42.696;23.350;2023-02-20T06:30:20;95890.47;;;8.71;72.34
40708;BME280;26392;42.696;23.350;2023-02-20T06:32:45;95887.31;;;8.74;71.91
40708;BME280;26392;42.696;23.350;2023-02-20T06:35:10;95895.13;;;8.83;71.83
40708;BME280;26392;42.696;23.350;2023-02-20T06:37:36;95892.56;;;8.88;71.09
40708;BME280;26392;42.696;23.350;2023-02-20T06:40:03;95888.66;;;8.95;68.67
40708;BME280;26392;42.696;23.350;2023-02-20T06:42:29;95851.19;;;8.86;69.34
40708;BME280;26392;42.696;23.350;2023-02-20T06:44:54;95890.25;;;9.03;69.94
40708;BME280;26392;42.696;23.350;2023-02-20T06:47:21;95869.44;;;8.97;69.05
40708;BME280;26392;42.696;23.350;2023-02-20T06:49:46;95861.81;;;8.87;69.08
40708;BME280;26392;42.696;23.350;2023-02-20T06:52:11;95856.03;;;8.84;69.29
40708;BME280;26392;42.696;23.350;2023-02-20T06:54:38;95881.22;;;8.91;69.65
40708;BME280;26392;42.696;23.350;2023-02-20T06:57:04;95898.09;;;8.93;70.10
40708;BME280;26392;42.696;23.350;2023-02-20T06:59:30;95884.78;;;8.91;68.76
40708;BME280;26392;42.696;23.350;2023-02-20T07:01:55;95887.81;;;8.83;68.97
40708;BME280;26392;42.696;23.350;2023-02-20T07:04:24;95885.41;;;8.75;68.63
40708;BME280;26392;42.696;23.350;2023-02-20T07:06:50;95873.56;;;8.69;68.53
40708;BME280;26392;42.696;23.350;2023-02-20T07:09:16;95893.84;;;8.85;68.43
40708;BME280;26392;42.696;23.350;2023-02-20T07:11:42;95885.94;;;8.95;67.51
40708;BME280;26392;42.696;23.350;2023-02-20T07:14:07;95890.81;;;8.93;66.82
40708;BME280;26392;42.696;23.350;2023-02-20T07:16:33;95893.78;;;9.04;66.07
40708;BME280;26392;42.696;23.350;2023-02-20T07:18:59;95886.25;;;9.17;65.15
40708;BME280;26392;42.696;23.350;2023-02-20T07:21:24;95887.50;;;9.33;63.75
40708;BME280;26392;42.696;23.350;2023-02-20T07:23:49;95882.38;;;9.25;61.37
40708;BME280;26392;42.696;23.350;2023-02-20T07:26:20;95897.78;;;9.31;60.73
40708;BME280;26392;42.696;23.350;2023-02-20T07:28:46;95898.59;;;9.32;60.90
40708;BME280;26392;42.696;23.350;2023-02-20T07:31:11;95881.09;;;9.28;60.32
40708;BME280;26392;42.696;23.350;2023-02-20T07:33:37;95898.50;;;9.38;59.20
40708;BME280;26392;42.696;23.350;2023-02-20T07:36:03;95903.22;;;9.31;58.60
40708;BME280;26392;42.696;23.350;2023-02-20T07:38:28;95916.94;;;9.36;58.74
40708;BME280;26392;42.696;23.350;2023-02-20T07:40:54;95905.94;;;9.31;57.82
40708;BME280;26392;42.696;23.350;2023-02-20T07:43:19;95907.53;;;9.21;58.41
40708;BME280;26392;42.696;23.350;2023-02-20T07:45:45;95912.97;;;9.21;57.52
40708;BME280;26392;42.696;23.350;2023-02-20T07:48:10;95910.41;;;9.26;57.26
40708;BME280;26392;42.696;23.350;2023-02-20T07:50:36;95932.00;;;9.21;57.19
40708;BME280;26392;42.696;23.350;2023-02-20T07:53:01;95935.56;;;9.21;57.16
40708;BME280;26392;42.696;23.350;2023-02-20T07:55:26;95939.56;;;9.18;56.83
40708;BME280;26392;42.696;23.350;2023-02-20T07:57:52;95940.88;;;9.16;56.91
40708;BME280;26392;42.696;23.350;2023-02-20T08:00:23;95951.19;;;9.26;56.59
40708;BME280;26392;42.696;23.350;2023-02-20T08:02:49;95957.69;;;9.25;56.13
40708;BME280;26392;42.696;23.350;2023-02-20T08:05:15;95952.50;;;9.35;56.36
40708;BME280;26392;42.696;23.350;2023-02-20T08:07:45;95947.56;;;9.44;56.03
40708;BME280;26392;42.696;23.350;2023-02-20T08:10:11;95933.25;;;9.36;57.81
40708;BME280;26392;42.696;23.350;2023-02-20T08:12:37;95951.34;;;9.43;55.37
40708;BME280;26392;42.696;23.350;2023-02-20T08:15:02;95944.97;;;9.49;54.85
40708;BME280;26392;42.696;23.350;2023-02-20T08:17:28;95946.28;;;9.46;54.17
40708;BME280;26392;42.696;23.350;2023-02-20T08:19:53;95950.91;;;9.46;53.92
40708;BME280;26392;42.696;23.350;2023-02-20T08:22:18;95957.41;;;9.45;53.80
40708;BME280;26392;42.696;23.350;2023-02-20T08:24:44;95939.78;;;9.47;53.68
40708;BME280;26392;42.696;23.350;2023-02-20T08:27:09;95946.03;;;9.36;52.99
40708;BME280;26392;42.696;23.350;2023-02-20T08:29:35;95946.94;;;9.30;52.96
40708;BME280;26392;42.696;23.350;2023-02-20T08:32:00;95946.94;;;9.30;52.44
40708;BME280;26392;42.696;23.350;2023-02-20T08:34:25;95949.94;;;9.40;52.69
40708;BME280;26392;42.696;23.350;2023-02-20T08:36:51;95946.41;;;9.51;52.54
40708;BME280;26392;42.696;23.350;2023-02-20T08:39:16;95943.81;;;9.56;51.96
40708;BME280;26392;42.696;23.350;2023-02-20T08:41:43;95941.94;;;9.69;52.01
40708;BME280;26392;42.696;23.350;2023-02-20T08:44:08;95948.00;;;9.71;51.67
40708;BME280;26392;42.696;23.350;2023-02-20T08:46:33;95950.72;;;9.71;51.99
40708;BME280;26392;42.696;23.350;2023-02-20T08:48:59;95955.94;;;9.72;51.89
40708;BME280;26392;42.696;23.350;2023-02-20T08:51:24;95954.03;;;9.73;51.38
40708;BME280;26392;42.696;23.350;2023-02-20T08:53:50;95956.03;;;9.77;50.58
40708;BME280;26392;42.696;23.350;2023-02-20T08:56:20;95940.91;;;9.81;50.16
40708;BME280;26392;42.696;23.350;2023-02-20T08:58:45;95963.78;;;9.92;50.34
40708;BME280;26392;42.696;23.350;2023-02-20T09:01:11;95937.94;;;9.83;49.85
40708;BME280;26392;42.696;23.350;2023-02-20T09:03:36;95942.94;;;9.86;49.96
40708;BME280;26392;42.696;23.350;2023-02-20T09:06:06;95944.34;;;9.89;49.98
40708;BME280;26392;42.696;23.350;2023-02-20T09:08:31;95952.63;;;9.82;49.77
40708;BME280;26392;42.696;23.350;2023-02-20T09:10:57;95938.88;;;9.89;49.73
40708;BME280;26392;42.696;23.350;2023-02-20T09:13:22;95930.72;;;9.89;49.61
40708;BME280;26392;42.696;23.350;2023-02-20T09:15:47;95940.31;;;9.91;49.36
40708;BME280;26392;42.696;23.350;2023-02-20T09:18:14;95928.59;;;10.02;49.58
40708;BME280;26392;42.696;23.350;2023-02-20T09:20:41;95916.66;;;10.03;49.43
40708;BME280;26392;42.696;23.350;2023-02-20T09:23:07;95940.22;;;10.09;49.73
40708;BME280;26392;42.696;23.350;2023-02-20T09:25:32;95932.41;;;10.01;49.34
40708;BME280;26392;42.696;23.350;2023-02-20T09:27:58;95931.09;;;10.04;49.13
40708;BME280;26392;42.696;23.350;2023-02-20T09:30:24;95927.44;;;10.10;49.19
40708;BME280;26392;42.696;23.350;2023-02-20T09:32:50;95937.00;;;10.24;49.38
40708;BME280;26392;42.696;23.350;2023-02-20T09:35:27;95940.31;;;10.26;48.58
40708;BME280;26392;42.696;23.350;2023-02-20T09:37:53;95928.63;;;10.14;48.92
40708;BME280;26392;42.696;23.350;2023-02-20T09:40:27;95930.63;;;10.19;49.97
40708;BME280;26392;42.696;23.350;2023-02-20T09:45:58;95938.91;;;10.24;49.70
40708;BME280;26392;42.696;23.350;2023-02-20T09:50:58;95939.75;;;10.36;49.71
40708;BME280;26392;42.696;23.350;2023-02-20T09:54:01;95928.16;;;10.41;49.70
40708;BME280;26392;42.696;23.350;2023-02-20T09:56:31;95941.25;;;10.56;49.74
40708;BME280;26392;42.696;23.350;2023-02-20T10:01:50;95941.22;;;10.79;47.93
40708;BME280;26392;42.696;23.350;2023-02-20T10:04:20;95934.13;;;10.66;48.08
40708;BME280;26392;42.696;23.350;2023-02-20T10:06:50;95945.63;;;10.68;48.39
40708;BME280;26392;42.696;23.350;2023-02-20T10:09:16;95928.66;;;10.78;48.12
40708;BME280;26392;42.696;23.350;2023-02-20T10:15:06;95918.94;;;10.82;47.48
40708;BME280;26392;42.696;23.350;2023-02-20T10:20:36;95902.09;;;10.85;46.70
40708;BME280;26392;42.696;23.350;2023-02-20T10:26:12;95911.25;;;10.79;46.28
40708;BME280;26392;42.696;23.350;2023-02-20T10:28:40;95879.03;;;10.76;46.27
40708;BME280;26392;42.696;23.350;2023-02-20T10:31:26;95892.34;;;10.89;45.82
40708;BME280;26392;42.696;23.350;2023-02-20T10:34:07;95898.53;;;10.85;45.53
40708;BME280;26392;42.696;23.350;2023-02-20T10:36:47;95889.41;;;10.91;45.23
40708;BME280;26392;42.696;23.350;2023-02-20T10:39:18;95891.88;;;10.92;45.02
40708;BME280;26392;42.696;23.350;2023-02-20T10:41:51;95898.50;;;10.96;45.11
40708;BME280;26392;42.696;23.350;2023-02-20T10:44:44;95901.00;;;10.98;45.24
40708;BME280;26392;42.696;23.350;2023-02-20T10:55:45;95897.44;;;11.43;43.58
40708;BME280;26392;42.696;23.350;2023-02-20T10:58:25;95892.66;;;11.50;44.10
40708;BME280;26392;42.696;23.350;2023-02-20T11:01:01;95895.78;;;11.59;44.01
40708;BME280;26392;42.696;23.350;2023-02-20T11:03:41;95911.13;;;11.60;43.35
40708;BME280;26392;42.696;23.350;2023-02-20T11:06:12;95893.88;;;11.59;43.73
40708;BME280;26392;42.696;23.350;2023-02-20T11:08:38;95891.66;;;11.56;43.77
40708;BME280;26392;42.696;23.350;2023-02-20T11:11:24;95880.50;;;11.58;43.91
40708;BME280;26392;42.696;23.350;2023-02-20T11:13:51;95873.81;;;11.65;44.44
40708;BME280;26392;42.696;23.350;2023-02-20T11:16:25;95881.00;;;11.72;44.76
40708;BME280;26392;42.696;23.350;2023-02-20T11:19:05;95884.56;;;11.55;45.12
40708;BME280;26392;42.696;23.350;2023-02-20T11:21:45;95861.22;;;11.64;45.08
40708;BME280;26392;42.696;23.350;2023-02-20T11:24:27;95856.34;;;11.67;45.10
40708;BME280;26392;42.696;23.350;2023-02-20T11:27:20;95865.03;;;11.63;44.81
40708;BME280;26392;42.696;23.350;2023-02-20T11:30:02;95860.00;;;11.72;44.72
40708;BME280;26392;42.696;23.350;2023-02-20T11:37:38;95861.16;;;12.10;43.85
40708;BME280;26392;42.696;23.350;2023-02-20T11:40:13;95858.97;;;12.12;43.61
40708;BME280;26392;42.696;23.350;2023-02-20T11:42:39;95854.91;;;12.15;43.59
40708;BME280;26392;42.696;23.350;2023-02-20T11:47:41;95868.25;;;12.11;43.07
40708;BME280;26392;42.696;23.350;2023-02-20T11:50:11;95856.00;;;12.14;43.09
40708;BME280;26392;42.696;23.350;2023-02-20T11:52:54;95848.28;;;12.27;43.34
40708;BME280;26392;42.696;23.350;2023-02-20T11:55:23;95847.09;;;12.23;42.85
40708;BME280;26392;42.696;23.350;2023-02-20T11:57:48;95852.31;;;12.25;42.92
40708;BME280;26392;42.696;23.350;2023-02-20T12:00:20;95852.31;;;12.25;42.96
40708;BME280;26392;42.696;23.350;2023-02-20T12:05:13;95832.00;;;12.16;42.62
40708;BME280;26392;42.696;23.350;2023-02-20T12:10:42;95842.84;;;12.11;42.70
40708;BME280;26392;42.696;23.350;2023-02-20T12:13:14;95842.84;;;12.11;42.77
40708;BME280;26392;42.696;23.350;2023-02-20T12:15:41;95833.28;;;12.30;42.71
40708;BME280;26392;42.696;23.350;2023-02-20T12:21:01;95842.03;;;12.54;42.03
40708;BME280;26392;42.696;23.350;2023-02-20T12:31:30;95840.66;;;12.29;42.16
40708;BME280;26392;42.696;23.350;2023-02-20T13:01:06;95843.00;;;12.65;41.12
40708;BME280;26392;42.696;23.350;2023-02-20T13:06:07;95830.50;;;12.74;41.04
40708;BME280;26392;42.696;23.350;2023-02-20T13:08:37;95845.50;;;12.71;41.12
40708;BME280;26392;42.696;23.350;2023-02-20T13:11:11;95852.59;;;12.67;41.16
40708;BME280;26392;42.696;23.350;2023-02-20T13:14:24;95847.94;;;12.68;41.46
40708;BME280;26392;42.696;23.350;2023-02-20T13:16:35;95839.00;;;12.50;41.71
40708;BME280;26392;42.696;23.350;2023-02-20T13:19:25;95852.47;;;12.57;41.77
40708;BME280;26392;42.696;23.350;2023-02-20T13:21:54;95852.97;;;12.54;41.72
40708;BME280;26392;42.696;23.350;2023-02-20T13:26:50;95846.59;;;12.48;42.19
40708;BME280;26392;42.696;23.350;2023-02-20T13:29:18;95840.91;;;12.50;42.26
40708;BME280;26392;42.696;23.350;2023-02-20T13:34:34;95845.72;;;12.43;42.54
40708;BME280;26392;42.696;23.350;2023-02-20T13:37:01;95864.31;;;12.41;42.63
40708;BME280;26392;42.696;23.350;2023-02-20T13:39:45;95860.34;;;12.53;42.72
40708;BME280;26392;42.696;23.350;2023-02-20T13:42:31;95863.38;;;12.57;42.69
40708;BME280;26392;42.696;23.350;2023-02-20T13:44:56;95886.09;;;12.58;42.57
40708;BME280;26392;42.696;23.350;2023-02-20T13:47:34;95881.06;;;12.71;42.46
40708;BME280;26392;42.696;23.350;2023-02-20T13:50:19;95880.50;;;12.69;42.56
40708;BME280;26392;42.696;23.350;2023-02-20T13:52:48;95880.38;;;12.81;42.78
40708;BME280;26392;42.696;23.350;2023-02-20T13:55:22;95883.69;;;12.83;42.45
40708;BME280;26392;42.696;23.350;2023-02-20T13:58:01;95874.31;;;12.79;42.37
40708;BME280;26392;42.696;23.350;2023-02-20T14:00:35;95862.81;;;12.77;42.56
40708;BME280;26392;42.696;23.350;2023-02-20T14:03:29;95866.19;;;12.62;42.63
40708;BME280;26392;42.696;23.350;2023-02-20T14:06:06;95855.31;;;12.67;42.94
40708;BME280;26392;42.696;23.350;2023-02-20T14:08:33;95861.25;;;12.59;43.00
40708;BME280;26392;42.696;23.350;2023-02-20T14:11:26;95849.34;;;12.48;43.46
40708;BME280;26392;42.696;23.350;2023-02-20T14:13:53;95865.28;;;12.35;43.73
40708;BME280;26392;42.696;23.350;2023-02-20T14:18:58;95874.56;;;12.34;45.32
40708;BME280;26392;42.696;23.350;2023-02-20T14:21:24;95877.44;;;12.44;44.50
40708;BME280;26392;42.696;23.350;2023-02-20T14:23:51;95886.72;;;12.43;44.31
40708;BME280;26392;42.696;23.350;2023-02-20T14:26:29;95877.50;;;12.49;44.00
40708;BME280;26392;42.696;23.350;2023-02-20T14:28:57;95886.94;;;12.58;43.73
40708;BME280;26392;42.696;23.350;2023-02-20T14:31:34;95893.72;;;12.56;43.89
40708;BME280;26392;42.696;23.350;2023-02-20T14:42:25;95897.44;;;12.27;45.31
40708;BME280;26392;42.696;23.350;2023-02-20T14:45:01;95890.34;;;12.09;45.47
40708;BME280;26392;42.696;23.350;2023-02-20T14:47:27;95891.22;;;11.93;45.84
40708;BME280;26392;42.696;23.350;2023-02-20T14:49:53;95897.69;;;11.75;46.31
40708;BME280;26392;42.696;23.350;2023-02-20T14:52:21;95880.69;;;11.68;46.46
40708;BME280;26392;42.696;23.350;2023-02-20T14:55:04;95902.44;;;11.63;46.63
40708;BME280;26392;42.696;23.350;2023-02-20T14:57:31;95890.34;;;11.59;46.62
40708;BME280;26392;42.696;23.350;2023-02-20T15:02:32;95910.03;;;11.61;46.94
40708;BME280;26392;42.696;23.350;2023-02-20T15:05:04;95900.84;;;11.50;47.20